createdAt,value
2022-12-18T00:00:08.266Z,71.43
2022-12-18T00:02:58.216Z,71.49
2022-12-18T00:05:58.947Z,71.27
2022-12-18T00:08:35.738Z,70.94
2022-12-18T00:11:15.168Z,71.68
2022-12-18T00:13:58.598Z,71.75
2022-12-18T00:16:37.941Z,71.93
2022-12-18T00:19:17.447Z,71.28
2022-12-18T00:21:54.028Z,70.87
2022-12-18T00:24:30.438Z,71.65
2022-12-18T00:27:11.242Z,70.99
2022-12-18T00:29:47.570Z,71.30
2022-12-18T00:32:29.482Z,71.46
2022-12-18T00:35:04.760Z,71.22
2022-12-18T00:37:38.552Z,70.99
2022-12-18T00:40:13.275Z,70.73
2022-12-18T00:42:58.665Z,71.16
2022-12-18T00:45:34.280Z,71.27
2022-12-18T00:48:07.676Z,71.37
2022-12-18T00:50:42.202Z,71.28
2022-12-18T00:53:17.567Z,71.63
2022-12-18T00:55:50.733Z,71.51
2022-12-18T00:58:25.580Z,71.08
2022-12-18T01:00:58.999Z,71.19
2022-12-18T01:03:32.264Z,71.66
2022-12-18T01:06:08.203Z,70.89
2022-12-18T01:08:41.305Z,71.42
2022-12-18T01:11:15.941Z,71.29
2022-12-18T01:13:50.189Z,71.70
2022-12-18T01:16:24.042Z,71.13
2022-12-18T01:18:57.214Z,71.33
2022-12-18T01:21:30.155Z,71.29
2022-12-18T01:24:05.230Z,71.75
2022-12-18T01:26:38.667Z,72.00
2022-12-18T01:29:12.867Z,71.66
2022-12-18T01:31:45.669Z,71.66
2022-12-18T01:34:18.449Z,71.44
2022-12-18T01:36:53.134Z,71.12
2022-12-18T01:39:26.188Z,71.12
2022-12-18T01:42:05.128Z,70.51
2022-12-18T01:45:03.158Z,71.40
2022-12-18T01:47:40.103Z,70.79
2022-12-18T01:50:16.907Z,71.07
2022-12-18T01:52:52.697Z,70.77
2022-12-18T01:55:27.418Z,71.67
2022-12-18T01:58:02.504Z,70.55
2022-12-18T02:00:37.002Z,71.09
2022-12-18T02:03:10.021Z,71.11
2022-12-18T02:05:51.441Z,71.05
2022-12-18T02:08:34.990Z,70.50
2022-12-18T02:11:14.896Z,70.94
2022-12-18T02:13:55.137Z,70.97
2022-12-18T02:16:36.843Z,70.80
2022-12-18T02:19:38.818Z,70.97
2022-12-18T02:22:26.879Z,71.48
2022-12-18T02:25:13.900Z,70.50
2022-12-18T02:27:52.318Z,71.17
2022-12-18T02:30:28.911Z,71.51
2022-12-18T02:33:05.965Z,71.24
2022-12-18T02:35:43.212Z,70.98
2022-12-18T02:38:18.198Z,70.58
2022-12-18T02:40:55.621Z,71.52
2022-12-18T02:43:31.908Z,70.92
2022-12-18T02:46:32.220Z,70.76
2022-12-18T02:49:19.865Z,71.53
2022-12-18T02:51:57.816Z,70.78
2022-12-18T02:54:51.486Z,70.96
2022-12-18T02:57:35.092Z,70.87
2022-12-18T03:00:14.654Z,70.95
2022-12-18T03:02:54.162Z,71.99
2022-12-18T03:05:33.278Z,70.95
2022-12-18T03:08:13.765Z,71.01
2022-12-18T03:10:53.475Z,71.02
2022-12-18T03:13:31.219Z,71.13
2022-12-18T03:16:09.142Z,70.90
2022-12-18T03:18:48.547Z,70.75
2022-12-18T03:21:28.654Z,70.70
2022-12-18T03:24:02.777Z,70.82
2022-12-18T03:26:38.787Z,70.90
2022-12-18T03:29:20.312Z,70.43
2022-12-18T03:32:01.831Z,70.48
2022-12-18T03:34:38.439Z,70.62
2022-12-18T03:37:14.080Z,70.96
2022-12-18T03:39:47.430Z,71.24
2022-12-18T03:42:29.009Z,71.31
2022-12-18T03:45:13.330Z,70.42
2022-12-18T03:48:00.051Z,70.77
2022-12-18T03:50:42.119Z,70.75
2022-12-18T03:53:26.067Z,70.15
2022-12-18T03:56:01.265Z,70.81
2022-12-18T03:58:40.906Z,70.35
2022-12-18T04:01:32.984Z,70.27
2022-12-18T04:04:09.437Z,71.11
2022-12-18T04:06:47.463Z,70.30
2022-12-18T04:09:21.730Z,70.76
2022-12-18T04:11:55.212Z,70.48
2022-12-18T04:14:28.262Z,70.66
2022-12-18T04:17:02.836Z,70.50
2022-12-18T04:19:39.855Z,69.89
2022-12-18T04:22:14.617Z,70.19
2022-12-18T04:24:51.901Z,70.58
2022-12-18T04:27:34.033Z,70.77
2022-12-18T04:30:07.599Z,70.28
2022-12-18T04:32:40.433Z,69.97
2022-12-18T04:35:16.270Z,70.34
2022-12-18T04:37:50.429Z,69.99
2022-12-18T04:40:23.174Z,70.18
2022-12-18T04:42:56.421Z,70.12
2022-12-18T04:45:29.223Z,70.30
2022-12-18T04:48:02.162Z,69.83
2022-12-18T04:50:36.494Z,70.12
2022-12-18T04:53:09.171Z,70.31
2022-12-18T04:55:42.845Z,69.04
2022-12-18T04:58:15.560Z,69.88
2022-12-18T05:00:48.136Z,70.41
2022-12-18T05:03:20.903Z,70.30
2022-12-18T05:05:55.202Z,69.46
2022-12-18T05:08:28.166Z,69.84
2022-12-18T05:11:02.159Z,69.83
2022-12-18T05:13:35.866Z,70.60
2022-12-18T05:16:09.675Z,70.04
2022-12-18T05:18:42.829Z,70.31
2022-12-18T05:21:17.229Z,70.30
2022-12-18T05:23:50.132Z,69.96
2022-12-18T05:26:22.724Z,70.27
2022-12-18T05:28:55.606Z,70.38
2022-12-18T05:31:28.792Z,70.64
2022-12-18T05:34:01.718Z,70.04
2022-12-18T05:36:36.401Z,70.21
2022-12-18T05:39:09.788Z,70.26
2022-12-18T05:41:42.890Z,70.24
2022-12-18T05:44:16.207Z,70.48
2022-12-18T05:46:49.150Z,70.39
2022-12-18T05:49:21.991Z,69.84
2022-12-18T05:51:55.949Z,69.74
2022-12-18T05:54:29.413Z,70.53
2022-12-18T05:57:02.386Z,70.16
2022-12-18T05:59:35.136Z,70.29
2022-12-18T06:02:08.086Z,69.89
2022-12-18T06:04:41.003Z,70.36
2022-12-18T06:07:15.211Z,69.99
2022-12-18T06:09:47.980Z,70.55
2022-12-18T06:12:20.650Z,70.04
2022-12-18T06:14:53.412Z,70.44
2022-12-18T06:17:29.914Z,70.00
2022-12-18T06:20:03.221Z,70.08
2022-12-18T06:22:37.532Z,69.49
2022-12-18T06:25:10.756Z,70.11
2022-12-18T06:27:43.702Z,69.94
2022-12-18T06:30:17.621Z,69.13
2022-12-18T06:32:56.401Z,69.34
2022-12-18T06:35:29.637Z,69.35
2022-12-18T06:38:04.478Z,69.79
2022-12-18T06:40:39.138Z,69.38
2022-12-18T06:43:11.962Z,69.65
2022-12-18T06:45:44.655Z,69.50
2022-12-18T06:48:17.402Z,70.48
2022-12-18T06:50:50.213Z,70.18
2022-12-18T06:53:24.998Z,69.72
2022-12-18T06:56:07.879Z,70.22
2022-12-18T06:58:43.353Z,70.06
2022-12-18T07:01:16.356Z,69.75
2022-12-18T07:03:54.007Z,69.76
2022-12-18T07:06:28.157Z,69.63
2022-12-18T07:09:02.703Z,69.48
2022-12-18T07:11:35.979Z,69.81
2022-12-18T07:14:08.851Z,69.64
2022-12-18T07:16:42.009Z,69.77
2022-12-18T07:19:15.465Z,69.78
2022-12-18T07:21:48.416Z,69.81
2022-12-18T07:24:22.706Z,69.72
2022-12-18T07:26:55.534Z,69.19
2022-12-18T07:29:28.233Z,69.62
2022-12-18T07:32:01.123Z,69.81
2022-12-18T07:34:34.307Z,69.58
2022-12-18T07:37:08.224Z,69.52
2022-12-18T07:39:42.646Z,69.96
2022-12-18T07:42:34.245Z,69.91
2022-12-18T07:45:08.340Z,69.43
2022-12-18T07:47:42.235Z,69.87
2022-12-18T07:50:15.160Z,69.97
2022-12-18T07:52:49.359Z,69.28
2022-12-18T07:55:24.577Z,68.86
2022-12-18T07:58:01.025Z,68.95
2022-12-18T08:00:34.226Z,69.03
2022-12-18T08:03:07.076Z,69.06
2022-12-18T08:05:40.460Z,69.32
2022-12-18T08:08:13.480Z,69.32
2022-12-18T08:10:48.286Z,69.34
2022-12-18T08:13:21.058Z,69.49
2022-12-18T08:16:00.171Z,69.38
2022-12-18T08:18:34.524Z,69.03
2022-12-18T08:21:11.479Z,69.28
2022-12-18T08:23:45.489Z,69.04
2022-12-18T08:26:19.950Z,69.21
2022-12-18T08:28:55.883Z,69.20
2022-12-18T08:31:30.815Z,68.93
2022-12-18T08:34:04.011Z,69.26
2022-12-18T08:36:37.592Z,68.80
2022-12-18T08:39:10.264Z,68.64
2022-12-18T08:42:09.904Z,68.90
2022-12-18T08:44:43.117Z,69.65
2022-12-18T08:47:15.867Z,68.90
2022-12-18T08:49:48.654Z,69.16
2022-12-18T08:52:21.571Z,69.40
2022-12-18T08:54:54.324Z,69.78
2022-12-18T08:57:28.563Z,69.41
2022-12-18T09:00:01.510Z,69.28
2022-12-18T09:02:34.460Z,68.87
2022-12-18T09:05:07.884Z,69.37
2022-12-18T09:07:40.717Z,69.57
2022-12-18T09:10:13.786Z,69.28
2022-12-18T09:12:48.016Z,69.42
2022-12-18T09:15:20.977Z,70.15
2022-12-18T09:17:55.204Z,69.81
2022-12-18T09:20:30.904Z,69.35
2022-12-18T09:23:03.788Z,69.64
2022-12-18T09:25:37.005Z,69.28
2022-12-18T09:28:16.997Z,69.51
2022-12-18T09:30:51.459Z,69.65
2022-12-18T09:33:24.565Z,69.67
2022-12-18T09:35:57.390Z,69.27
2022-12-18T09:38:30.502Z,69.58
2022-12-18T09:41:08.721Z,69.77
2022-12-18T09:43:48.271Z,69.62
2022-12-18T09:46:27.818Z,69.79
2022-12-18T09:49:05.076Z,69.93
2022-12-18T09:51:42.848Z,70.33
2022-12-18T09:54:22.832Z,69.68
2022-12-18T09:56:56.122Z,69.79
2022-12-18T09:59:36.355Z,69.39
2022-12-18T10:02:22.247Z,69.85
2022-12-18T10:05:09.125Z,69.72
2022-12-18T10:07:51.971Z,70.18
2022-12-18T10:10:43.993Z,69.59
2022-12-18T10:13:25.435Z,69.88
2022-12-18T10:16:13.230Z,69.39
2022-12-18T10:19:14.877Z,69.87
2022-12-18T10:21:55.182Z,70.13
2022-12-18T10:24:37.663Z,70.05
2022-12-18T10:27:16.589Z,70.05
2022-12-18T10:29:49.971Z,69.05
2022-12-18T10:32:26.899Z,69.77
2022-12-18T10:35:01.127Z,69.58
2022-12-18T10:37:34.617Z,70.07
2022-12-18T10:40:16.675Z,69.82
2022-12-18T10:43:07.273Z,69.40
2022-12-18T10:45:40.314Z,69.84
2022-12-18T10:48:24.619Z,69.70
2022-12-18T10:51:10.870Z,69.33
2022-12-18T10:53:55.041Z,69.89
2022-12-18T10:56:30.175Z,69.97
2022-12-18T10:59:05.866Z,69.73
2022-12-18T11:01:49.592Z,69.58
2022-12-18T11:04:25.602Z,69.90
2022-12-18T11:07:02.959Z,69.88
2022-12-18T11:09:40.009Z,69.52
2022-12-18T11:12:19.348Z,69.96
2022-12-18T11:14:54.494Z,69.40
2022-12-18T11:17:34.643Z,69.59
2022-12-18T11:20:23.922Z,69.33
2022-12-18T11:22:58.576Z,69.41
2022-12-18T11:25:34.719Z,69.26
2022-12-18T11:28:30.316Z,69.56
2022-12-18T11:31:21.425Z,69.79
2022-12-18T11:36:56.972Z,69.96
2022-12-18T11:39:40.203Z,69.77
2022-12-18T11:42:22.247Z,70.28
2022-12-18T11:45:00.112Z,69.91
2022-12-18T11:47:41.221Z,70.44
2022-12-18T11:50:18.630Z,70.44
2022-12-18T11:52:58.190Z,70.39
2022-12-18T11:55:49.193Z,70.20
2022-12-18T11:58:35.183Z,70.06
2022-12-18T12:01:19.722Z,69.97
2022-12-18T12:04:11.187Z,70.22
2022-12-18T12:06:54.203Z,70.20
2022-12-18T12:09:39.967Z,69.89
2022-12-18T12:12:30.359Z,70.16
2022-12-18T12:15:15.075Z,70.01
2022-12-18T12:17:54.743Z,70.73
2022-12-18T12:20:40.036Z,70.08
2022-12-18T12:23:23.521Z,70.21
2022-12-18T12:26:06.440Z,70.98
2022-12-18T12:28:54.700Z,70.52
2022-12-18T12:31:38.256Z,70.25
2022-12-18T12:34:18.743Z,70.79
2022-12-18T12:37:05.229Z,71.36
2022-12-18T12:39:41.675Z,70.60
2022-12-18T12:42:43.462Z,70.92
2022-12-18T12:45:24.834Z,70.46
2022-12-18T12:47:59.899Z,70.69
2022-12-18T12:50:38.324Z,70.83
2022-12-18T12:53:23.406Z,70.64
2022-12-18T12:55:57.572Z,70.95
2022-12-18T12:58:39.086Z,70.98
2022-12-18T13:01:30.236Z,71.08
2022-12-18T13:04:16.782Z,71.14
2022-12-18T13:06:56.752Z,70.95
2022-12-18T13:09:34.991Z,71.07
2022-12-18T13:12:34.975Z,70.70
2022-12-18T13:15:24.664Z,69.92
2022-12-18T13:18:09.855Z,71.01
2022-12-18T13:20:50.706Z,70.85
2022-12-18T13:23:30.896Z,70.48
2022-12-18T13:26:39.759Z,71.30
2022-12-18T13:29:12.783Z,70.42
2022-12-18T13:32:23.451Z,70.37
2022-12-18T13:35:33.758Z,71.13
2022-12-18T13:38:23.319Z,71.04
2022-12-18T13:41:01.081Z,71.13
2022-12-18T13:43:42.311Z,71.38
2022-12-18T13:46:25.602Z,71.45
2022-12-18T13:49:04.426Z,71.22
2022-12-18T13:51:37.813Z,70.61
2022-12-18T13:54:21.852Z,70.65
2022-12-18T13:56:55.781Z,71.21
2022-12-18T13:59:39.428Z,71.05
2022-12-18T14:02:18.151Z,71.22
2022-12-18T14:04:54.263Z,71.20
2022-12-18T14:07:33.093Z,70.88
2022-12-18T14:10:44.291Z,70.63
2022-12-18T14:13:16.223Z,71.16
2022-12-18T14:15:52.416Z,71.20
2022-12-18T14:18:27.842Z,71.25
2022-12-18T14:21:08.625Z,71.36
2022-12-18T14:23:44.568Z,70.87
2022-12-18T14:26:25.408Z,71.14
2022-12-18T14:28:59.763Z,71.05
2022-12-18T14:31:34.191Z,70.99
2022-12-18T14:34:10.797Z,71.04
2022-12-18T14:36:55.110Z,71.03
2022-12-18T14:39:30.963Z,70.90
2022-12-18T14:42:06.494Z,70.91
2022-12-18T14:45:05.241Z,71.54
2022-12-18T14:47:35.475Z,71.51
2022-12-18T14:50:18.099Z,71.68
2022-12-18T14:52:53.213Z,71.10
2022-12-18T14:55:28.347Z,71.21
2022-12-18T14:58:04.517Z,71.46
2022-12-18T15:00:44.150Z,71.25
2022-12-18T15:03:21.339Z,71.51
2022-12-18T15:05:57.063Z,71.04
2022-12-18T15:08:37.874Z,71.78
2022-12-18T15:11:28.094Z,71.20
2022-12-18T15:14:04.871Z,72.18
2022-12-18T15:16:46.248Z,71.36
2022-12-18T15:19:22.728Z,71.77
2022-12-18T15:22:06.339Z,72.03
2022-12-18T15:24:41.465Z,71.50
2022-12-18T15:27:26.495Z,71.61
2022-12-18T15:30:20.223Z,71.17
2022-12-18T15:37:23.831Z,71.43
2022-12-18T15:40:21.421Z,71.05
2022-12-18T15:43:14.991Z,71.58
2022-12-18T15:45:50.352Z,72.07
2022-12-18T15:48:46.978Z,71.08
2022-12-18T15:51:25.549Z,72.05
2022-12-18T15:54:04.754Z,71.48
2022-12-18T15:57:01.425Z,70.94
2022-12-18T15:59:35.461Z,70.85
2022-12-18T16:02:17.901Z,70.36
2022-12-18T16:04:52.257Z,71.38
2022-12-18T16:07:28.087Z,71.43
2022-12-18T16:10:05.253Z,71.51
2022-12-18T16:12:40.236Z,70.88
2022-12-18T16:15:22.495Z,71.45
2022-12-18T16:17:59.386Z,71.29
2022-12-18T16:20:32.316Z,70.94
2022-12-18T16:23:05.277Z,71.32
2022-12-18T16:25:38.421Z,71.15
2022-12-18T16:28:13.570Z,70.38
2022-12-18T16:30:49.714Z,70.90
2022-12-18T16:33:25.036Z,70.91
2022-12-18T16:35:58.469Z,71.32
2022-12-18T16:38:39.957Z,70.70
2022-12-18T16:41:38.642Z,70.37
2022-12-18T16:44:13.361Z,70.86
2022-12-18T16:46:47.435Z,70.90
2022-12-18T16:49:22.640Z,70.13
2022-12-18T16:51:56.033Z,70.69
2022-12-18T16:54:30.418Z,70.52
2022-12-18T16:57:24.017Z,70.92
2022-12-18T17:00:04.757Z,70.52
2022-12-18T17:02:39.485Z,70.47
2022-12-18T17:05:13.739Z,70.62
2022-12-18T17:07:46.994Z,70.78
2022-12-18T17:10:20.035Z,70.62
2022-12-18T17:12:52.933Z,70.58
2022-12-18T17:15:26.939Z,70.58
2022-12-18T17:17:59.926Z,70.38
2022-12-18T17:20:33.258Z,70.50
2022-12-18T17:23:06.294Z,70.81
2022-12-18T17:25:41.115Z,70.52
2022-12-18T17:28:13.959Z,70.64
2022-12-18T17:30:48.069Z,70.52
2022-12-18T17:33:21.475Z,70.79
2022-12-18T17:35:55.110Z,70.48
2022-12-18T17:38:27.909Z,70.69
2022-12-18T17:41:01.716Z,70.20
2022-12-18T17:43:36.449Z,70.17
2022-12-18T17:46:15.286Z,70.33
2022-12-18T17:48:50.075Z,70.34
2022-12-18T17:51:23.188Z,70.54
2022-12-18T17:53:56.100Z,70.70
2022-12-18T17:56:28.869Z,70.16
2022-12-18T17:59:02.084Z,70.67
2022-12-18T18:01:43.764Z,70.93
2022-12-18T18:04:20.012Z,70.34
2022-12-18T18:06:52.956Z,70.56
2022-12-18T18:09:25.895Z,70.59
2022-12-18T18:12:16.091Z,70.38
2022-12-18T18:14:49.239Z,70.30
2022-12-18T18:17:23.814Z,70.01
2022-12-18T18:19:57.065Z,70.38
2022-12-18T18:22:30.273Z,70.81
2022-12-18T18:25:04.166Z,70.40
2022-12-18T18:27:40.641Z,70.38
2022-12-18T18:30:14.670Z,70.37
2022-12-18T18:32:48.824Z,70.32
2022-12-18T18:35:52.233Z,70.08
2022-12-18T18:38:15.698Z,70.13
2022-12-18T18:40:48.793Z,70.25
2022-12-18T18:43:24.412Z,70.62
2022-12-18T18:45:58.440Z,70.71
2022-12-18T18:48:35.743Z,71.67
2022-12-18T18:51:12.625Z,71.05
2022-12-18T18:53:51.061Z,71.18
2022-12-18T18:59:22.419Z,71.03
2022-12-18T19:02:04.301Z,70.71
2022-12-18T19:04:45.785Z,71.47
2022-12-18T19:07:29.493Z,71.00
2022-12-18T19:10:05.401Z,71.12
2022-12-18T19:12:56.123Z,71.32
2022-12-18T19:15:29.055Z,71.80
2022-12-18T19:18:02.219Z,71.18
2022-12-18T19:20:36.925Z,71.79
2022-12-18T19:23:10.035Z,71.47
2022-12-18T19:25:44.059Z,72.19
2022-12-18T19:28:21.166Z,72.48
2022-12-18T19:30:59.340Z,72.52
2022-12-18T19:33:43.037Z,72.27
2022-12-18T19:36:20.814Z,71.85
2022-12-18T19:38:56.403Z,71.73
2022-12-18T19:41:31.399Z,72.29
2022-12-18T19:44:07.714Z,72.16
2022-12-18T19:46:42.324Z,71.98
2022-12-18T19:49:18.398Z,72.43
2022-12-18T19:51:55.335Z,72.21
2022-12-18T19:54:28.190Z,71.66
2022-12-18T19:57:00.895Z,71.57
2022-12-18T19:59:33.755Z,71.87
2022-12-18T20:02:06.734Z,72.19
2022-12-18T20:04:40.311Z,72.62
2022-12-18T20:07:14.732Z,72.42
2022-12-18T20:09:48.060Z,72.46
2022-12-18T20:12:21.082Z,72.58
2022-12-18T20:14:55.864Z,72.58
2022-12-18T20:17:30.130Z,72.58
2022-12-18T20:20:04.549Z,72.72
2022-12-18T20:22:39.149Z,72.35
2022-12-18T20:25:11.991Z,72.64
2022-12-18T20:27:44.999Z,72.74
2022-12-18T20:30:17.834Z,72.45
2022-12-18T20:32:50.307Z,72.47
2022-12-18T20:35:23.241Z,72.48
2022-12-18T20:37:57.858Z,72.71
2022-12-18T20:40:31.623Z,72.82
2022-12-18T20:43:04.714Z,72.67
2022-12-18T20:45:38.826Z,73.20
2022-12-18T20:48:19.241Z,72.96
2022-12-18T20:51:00.050Z,72.46
2022-12-18T20:53:37.834Z,72.56
2022-12-18T20:56:21.154Z,72.85
2022-12-18T20:59:03.346Z,72.96
2022-12-18T21:01:36.517Z,73.29
2022-12-18T21:04:11.564Z,73.10
2022-12-18T21:06:49.447Z,73.43
2022-12-18T21:09:27.881Z,73.32
2022-12-18T21:12:25.347Z,72.71
2022-12-18T21:14:59.507Z,73.03
2022-12-18T21:17:33.097Z,72.71
2022-12-18T21:20:17.282Z,72.35
2022-12-18T21:22:50.684Z,72.57
2022-12-18T21:25:27.423Z,72.45
2022-12-18T21:28:00.266Z,73.07
2022-12-18T21:30:33.041Z,72.94
2022-12-18T21:33:06.298Z,72.76
2022-12-18T21:35:39.205Z,73.17
2022-12-18T21:38:11.923Z,73.61
2022-12-18T21:40:46.071Z,73.57
2022-12-18T21:43:36.460Z,73.70
2022-12-18T21:46:09.977Z,73.54
2022-12-18T21:48:43.457Z,73.49
2022-12-18T21:51:16.258Z,73.44
2022-12-18T21:53:49.392Z,73.78
2022-12-18T21:56:24.310Z,73.96
2022-12-18T21:58:57.504Z,73.64
2022-12-18T22:01:37.366Z,73.15
2022-12-18T22:04:11.319Z,73.22
2022-12-18T22:06:44.750Z,73.47
2022-12-18T22:09:19.573Z,73.08
2022-12-18T22:11:54.212Z,72.97
2022-12-18T22:14:27.187Z,73.54
2022-12-18T22:16:59.858Z,73.25
2022-12-18T22:19:34.723Z,73.87
2022-12-18T22:22:11.071Z,73.91
2022-12-18T22:24:43.838Z,73.55
2022-12-18T22:27:17.951Z,73.40
2022-12-18T22:30:05.061Z,73.31
2022-12-18T22:32:37.996Z,73.10
2022-12-18T22:35:15.804Z,73.79
2022-12-18T22:37:48.942Z,73.78
2022-12-18T22:40:27.779Z,73.46
2022-12-18T22:43:02.452Z,73.63
2022-12-18T22:45:36.298Z,73.59
2022-12-18T22:48:11.308Z,73.52
2022-12-18T22:50:45.911Z,73.13
2022-12-18T22:53:18.814Z,73.06
2022-12-18T22:55:51.609Z,73.06
2022-12-18T22:58:25.919Z,73.41
2022-12-18T23:00:58.742Z,73.38
2022-12-18T23:03:32.482Z,72.66
2022-12-18T23:06:06.958Z,73.39
2022-12-18T23:08:39.890Z,73.03
2022-12-18T23:11:13.060Z,73.60
2022-12-18T23:13:48.295Z,74.15
2022-12-18T23:16:22.730Z,73.83
2022-12-18T23:18:56.642Z,74.12
2022-12-18T23:21:29.517Z,74.24
2022-12-18T23:24:03.830Z,73.73
2022-12-18T23:26:36.830Z,73.64
2022-12-18T23:29:10.915Z,73.76
2022-12-18T23:31:43.906Z,73.32
2022-12-18T23:34:17.879Z,73.45
2022-12-18T23:36:54.577Z,73.56
2022-12-18T23:39:30.385Z,73.50
2022-12-18T23:42:03.426Z,73.81
2022-12-18T23:44:38.326Z,73.95
2022-12-18T23:47:11.114Z,74.12
2022-12-18T23:49:43.962Z,73.55
2022-12-18T23:52:16.607Z,74.41
2022-12-18T23:54:49.366Z,73.50
2022-12-18T23:57:22.163Z,74.11
2022-12-18T23:59:59.205Z,75.90
